createdAt,value
2023-02-22T00:02:30.074Z,2.85
2023-02-22T00:05:36.472Z,1.67
2023-02-22T00:08:13.158Z,2.15
2023-02-22T00:10:41.679Z,1.20
2023-02-22T00:13:14.864Z,2.17
2023-02-22T01:38:50.930Z,2.70
2023-02-22T02:31:40.636Z,1.80
2023-02-22T02:34:43.376Z,1.70
2023-02-22T02:37:32.226Z,1.90
2023-02-22T02:40:30.446Z,1.58
2023-02-22T02:44:01.521Z,2.20
2023-02-22T02:46:57.147Z,1.90
2023-02-22T02:50:01.352Z,2.20
2023-02-22T02:55:25.734Z,1.98
2023-02-22T02:57:54.737Z,1.70
2023-02-22T03:00:32.542Z,1.83
2023-02-22T03:03:26.255Z,1.83
2023-02-22T03:06:21.123Z,1.65
2023-02-22T03:09:10.136Z,1.45
2023-02-22T03:12:11.775Z,1.60
2023-02-22T03:14:57.323Z,1.63
2023-02-22T03:17:34.535Z,1.13
2023-02-22T03:20:38.548Z,1.25
2023-02-22T03:23:26.234Z,1.10
2023-02-22T03:26:06.173Z,1.83
2023-02-22T03:28:37.491Z,1.27
2023-02-22T03:31:14.007Z,1.38
2023-02-22T03:33:54.038Z,2.42
2023-02-22T03:36:40.339Z,0.98
2023-02-22T03:39:17.292Z,0.85
2023-02-22T03:41:52.623Z,1.40
2023-02-22T03:44:26.422Z,1.08
2023-02-22T03:46:59.952Z,1.10
2023-02-22T03:49:36.209Z,1.45
2023-02-22T03:52:06.351Z,0.88
2023-02-22T03:54:35.923Z,0.80
2023-02-22T03:57:36.393Z,0.75
2023-02-22T04:00:10.034Z,1.05
2023-02-22T04:02:39.132Z,0.80
2023-02-22T04:05:08.358Z,0.82
2023-02-22T04:07:37.385Z,1.30
2023-02-22T04:10:09.794Z,0.85
2023-02-22T04:12:39.177Z,0.80
2023-02-22T04:15:10.181Z,0.80
2023-02-22T04:17:38.447Z,1.08
2023-02-22T04:20:08.149Z,0.70
2023-02-22T04:22:36.516Z,0.80
2023-02-22T04:25:05.033Z,0.65
2023-02-22T04:27:33.471Z,0.70
2023-02-22T04:30:01.768Z,0.70
2023-02-22T04:32:30.091Z,0.55
2023-02-22T04:34:58.359Z,0.77
2023-02-22T04:37:29.680Z,0.55
2023-02-22T04:39:58.009Z,0.60
2023-02-22T04:42:26.292Z,0.70
2023-02-22T04:44:57.624Z,1.00
2023-02-22T04:47:26.348Z,0.80
2023-02-22T04:49:55.109Z,0.82
2023-02-22T04:52:24.117Z,0.70
2023-02-22T04:54:58.628Z,0.65
2023-02-22T04:57:36.362Z,0.75
2023-02-22T05:00:06.903Z,0.60
2023-02-22T05:02:36.101Z,0.98
2023-02-22T05:05:06.842Z,0.60
2023-02-22T05:08:00.124Z,0.90
2023-02-22T05:10:28.581Z,1.00
2023-02-22T05:15:22.503Z,0.90
2023-02-22T05:17:59.150Z,1.05
2023-02-22T05:20:36.920Z,1.00
2023-02-22T05:23:06.387Z,1.00
2023-02-22T05:26:08.128Z,1.15
2023-02-22T05:28:59.067Z,0.40
2023-02-22T05:31:27.578Z,1.08
2023-02-22T05:33:56.364Z,1.20
2023-02-22T05:36:25.497Z,1.13
2023-02-22T05:39:00.594Z,1.25
2023-02-22T05:41:30.415Z,1.00
2023-02-22T05:43:58.982Z,1.17
2023-02-22T05:46:27.403Z,1.33
2023-02-22T05:48:56.457Z,1.10
2023-02-22T05:52:00.567Z,1.40
2023-02-22T05:54:28.988Z,2.38
2023-02-22T05:57:00.326Z,1.20
2023-02-22T05:59:28.789Z,1.73
2023-02-22T06:02:00.265Z,0.70
2023-02-22T06:06:58.793Z,1.00
2023-02-22T06:09:27.113Z,0.88
2023-02-22T06:11:58.300Z,2.15
2023-02-22T06:14:29.080Z,2.28
2023-02-22T06:16:58.916Z,1.97
2023-02-22T06:19:27.890Z,1.83
2023-02-22T06:22:00.879Z,1.63
2023-02-22T06:24:29.221Z,2.42
2023-02-22T06:26:59.410Z,2.78
2023-02-22T06:29:30.794Z,2.42
2023-02-22T06:31:59.350Z,2.35
2023-02-22T06:34:30.819Z,2.20
2023-02-22T06:37:00.061Z,1.90
2023-02-22T06:39:28.642Z,2.03
2023-02-22T06:41:58.590Z,2.03
2023-02-22T06:44:26.995Z,1.88
2023-02-22T06:47:01.497Z,2.15
2023-02-22T06:49:29.920Z,2.10
2023-02-22T06:51:58.401Z,1.88
2023-02-22T06:54:28.074Z,1.80
2023-02-22T06:56:59.201Z,2.58
2023-02-22T06:59:28.828Z,1.63
2023-02-22T07:01:57.492Z,2.22
2023-02-22T07:04:26.203Z,2.00
2023-02-22T07:06:55.731Z,1.67
2023-02-22T07:09:26.768Z,1.70
2023-02-22T07:11:58.265Z,2.10
2023-02-22T07:17:02.644Z,2.03
2023-02-22T07:19:31.038Z,1.27
2023-02-22T07:22:00.412Z,1.73
2023-02-22T07:24:31.418Z,1.77
2023-02-22T07:27:02.290Z,1.40
2023-02-22T07:29:32.325Z,1.35
2023-02-22T07:32:01.230Z,1.88
2023-02-22T07:34:29.691Z,1.85
2023-02-22T07:37:01.095Z,2.28
2023-02-22T07:39:29.414Z,2.28
2023-02-22T07:41:57.645Z,1.60
2023-02-22T07:44:29.790Z,2.53
2023-02-22T07:46:58.116Z,1.88
2023-02-22T07:49:26.612Z,2.10
2023-02-22T07:51:55.445Z,1.67
2023-02-22T07:54:32.877Z,1.88
2023-02-22T07:57:02.035Z,2.10
2023-02-22T07:59:30.402Z,2.08
2023-02-22T08:01:58.787Z,2.40
2023-02-22T08:04:27.373Z,1.85
2023-02-22T08:06:56.057Z,2.00
2023-02-22T08:09:24.974Z,1.73
2023-02-22T08:11:54.126Z,2.00
2023-02-22T08:14:28.449Z,2.10
2023-02-22T08:16:57.049Z,1.23
2023-02-22T08:19:25.914Z,1.70
2023-02-22T08:21:54.766Z,1.35
2023-02-22T08:24:23.447Z,1.33
2023-02-22T08:26:52.417Z,1.60
2023-02-22T08:29:21.393Z,1.40
2023-02-22T08:31:56.227Z,2.05
2023-02-22T08:34:25.723Z,1.35
2023-02-22T08:36:55.060Z,1.33
2023-02-22T08:39:23.972Z,2.20
2023-02-22T08:41:52.885Z,1.50
2023-02-22T08:44:22.274Z,1.55
2023-02-22T08:46:51.290Z,1.40
2023-02-22T08:49:21.807Z,1.48
2023-02-22T08:51:50.079Z,1.10
2023-02-22T08:54:19.496Z,1.08
2023-02-22T08:56:48.670Z,1.42
2023-02-22T08:59:18.533Z,1.40
2023-02-22T09:01:47.588Z,2.05
2023-02-22T09:04:30.198Z,1.35
2023-02-22T09:06:58.542Z,1.45
2023-02-22T09:09:26.800Z,1.10
2023-02-22T09:11:55.359Z,1.30
2023-02-22T09:14:24.237Z,1.42
2023-02-22T09:16:53.178Z,2.15
2023-02-22T09:19:27.950Z,1.20
2023-02-22T09:21:58.092Z,1.50
2023-02-22T09:24:29.705Z,1.10
2023-02-22T09:29:28.135Z,1.10
2023-02-22T09:31:59.688Z,1.90
2023-02-22T09:36:59.119Z,2.08
2023-02-22T09:39:27.587Z,1.20
2023-02-22T09:42:15.095Z,1.48
2023-02-22T09:44:54.822Z,1.45
2023-02-22T09:47:33.266Z,1.60
2023-02-22T09:50:31.435Z,1.83
2023-02-22T09:53:30.475Z,1.48
2023-02-22T09:56:08.260Z,1.50
2023-02-22T09:58:44.207Z,1.55
2023-02-22T10:01:33.777Z,1.17
2023-02-22T10:04:04.928Z,1.20
2023-02-22T10:06:36.407Z,1.25
2023-02-22T10:09:09.216Z,1.13
2023-02-22T10:11:59.296Z,1.27
2023-02-22T10:14:53.012Z,1.50
2023-02-22T10:17:37.816Z,1.23
2023-02-22T10:20:16.431Z,1.30
2023-02-22T10:23:35.412Z,1.30
2023-02-22T10:26:26.967Z,1.25
2023-02-22T10:29:00.370Z,1.05
2023-02-22T10:31:36.711Z,1.35
2023-02-22T10:34:13.810Z,1.23
2023-02-22T10:36:52.364Z,1.27
2023-02-22T10:39:33.894Z,0.80
2023-02-22T10:42:08.923Z,1.08
2023-02-22T10:44:39.759Z,1.25
2023-02-22T10:47:12.466Z,1.23
2023-02-22T10:49:48.906Z,1.15
2023-02-22T10:52:26.911Z,1.25
2023-02-22T10:55:13.606Z,1.08
2023-02-22T10:57:46.835Z,0.70
2023-02-22T11:00:46.603Z,0.95
2023-02-22T11:03:24.219Z,1.58
2023-02-22T11:05:53.748Z,0.85
2023-02-22T11:08:34.422Z,1.33
2023-02-22T11:11:05.835Z,0.82
2023-02-22T11:13:39.654Z,1.63
2023-02-22T11:16:32.699Z,0.80
2023-02-22T11:19:27.055Z,1.20
2023-02-22T11:22:23.703Z,1.60
2023-02-22T11:25:04.239Z,1.10
2023-02-22T11:27:48.115Z,1.40
2023-02-22T11:30:30.257Z,1.50
2023-02-22T11:33:24.505Z,1.13
2023-02-22T11:35:59.040Z,0.22
2023-02-22T11:38:33.334Z,1.15
2023-02-22T11:41:17.600Z,1.10
2023-02-22T11:43:49.429Z,1.55
2023-02-22T11:49:09.684Z,1.23
2023-02-22T11:52:05.370Z,1.10
2023-02-22T11:54:34.098Z,0.88
2023-02-22T11:57:22.962Z,1.23
2023-02-22T12:00:26.948Z,1.20
2023-02-22T12:03:04.455Z,1.00
2023-02-22T12:06:04.528Z,1.02
2023-02-22T12:08:42.234Z,1.23
2023-02-22T12:11:45.654Z,1.38
2023-02-22T12:14:40.579Z,1.30
2023-02-22T12:17:33.474Z,1.40
2023-02-22T12:20:11.213Z,1.30
2023-02-22T12:22:48.183Z,1.50
2023-02-22T12:25:25.835Z,1.30
2023-02-22T12:27:56.214Z,1.27
2023-02-22T12:30:43.236Z,1.30
2023-02-22T12:33:30.916Z,0.90
2023-02-22T12:36:02.214Z,1.10
2023-02-22T12:38:45.510Z,1.52
2023-02-22T12:44:18.503Z,0.90
2023-02-22T12:46:56.417Z,1.00
2023-02-22T12:49:53.086Z,1.00
2023-02-22T12:52:43.422Z,1.30
2023-02-22T12:55:18.666Z,1.02
2023-02-22T12:58:08.422Z,1.00
2023-02-22T13:00:59.839Z,0.95
2023-02-22T13:03:45.876Z,0.70
2023-02-22T13:06:26.072Z,0.80
2023-02-22T13:09:38.342Z,1.10
2023-02-22T13:12:26.535Z,0.70
2023-02-22T13:15:00.767Z,0.70
2023-02-22T13:17:51.257Z,0.70
2023-02-22T13:20:30.062Z,0.90
2023-02-22T13:23:17.185Z,0.90
2023-02-22T13:26:29.916Z,0.80
2023-02-22T13:29:29.540Z,0.60
2023-02-22T13:32:33.031Z,0.68
2023-02-22T13:36:24.335Z,0.60
2023-02-22T13:39:16.695Z,0.40
2023-02-22T13:42:12.472Z,0.40
2023-02-22T13:45:09.714Z,1.15
2023-02-22T13:47:53.559Z,0.70
2023-02-22T13:50:40.122Z,0.85
2023-02-22T13:54:24.276Z,0.68
2023-02-22T13:57:05.716Z,0.70
2023-02-22T13:59:36.906Z,0.70
2023-02-22T14:02:10.767Z,0.95
2023-02-22T14:04:43.756Z,0.85
2023-02-22T14:07:27.439Z,0.60
2023-02-22T14:10:05.738Z,0.82
2023-02-22T14:12:37.110Z,0.80
2023-02-22T14:15:26.786Z,1.55
2023-02-22T14:20:37.709Z,1.17
2023-02-22T14:23:35.692Z,1.00
2023-02-22T14:26:23.154Z,2.97
2023-02-22T14:29:03.936Z,1.60
2023-02-22T14:31:38.175Z,4.63
2023-02-22T14:34:11.153Z,5.68
2023-02-22T14:36:48.531Z,10.90
2023-02-22T14:39:39.409Z,11.38
2023-02-22T14:42:26.731Z,3.00
2023-02-22T14:45:36.782Z,3.45
2023-02-22T14:48:39.878Z,4.05
2023-02-22T14:51:23.664Z,2.88
2023-02-22T14:53:53.456Z,1.20
2023-02-22T14:56:54.939Z,1.30
2023-02-22T14:59:29.879Z,1.55
2023-02-22T15:02:12.858Z,1.40
2023-02-22T15:04:44.917Z,1.00
2023-02-22T15:07:28.197Z,2.00
2023-02-22T15:10:18.706Z,1.23
2023-02-22T15:13:11.468Z,1.40
2023-02-22T15:15:48.929Z,1.80
2023-02-22T15:18:30.369Z,0.90
2023-02-22T15:21:07.018Z,2.17
2023-02-22T15:23:45.415Z,1.30
2023-02-22T15:26:19.502Z,1.30
2023-02-22T15:28:58.640Z,1.17
2023-02-22T15:31:32.832Z,1.08
2023-02-22T15:34:32.287Z,1.38
2023-02-22T15:37:26.002Z,1.40
2023-02-22T15:40:00.132Z,1.40
2023-02-22T15:42:31.206Z,1.25
2023-02-22T15:44:59.662Z,1.35
2023-02-22T15:47:30.452Z,1.10
2023-02-22T15:50:24.424Z,0.87
2023-02-22T15:53:06.661Z,1.67
2023-02-22T15:55:38.745Z,1.00
2023-02-22T15:58:19.600Z,1.20
2023-02-22T16:01:00.569Z,1.07
2023-02-22T16:03:34.014Z,1.05
2023-02-22T16:06:02.742Z,1.33
2023-02-22T16:08:54.776Z,1.00
2023-02-22T16:11:36.149Z,0.70
2023-02-22T16:14:07.858Z,0.68
2023-02-22T16:16:42.709Z,1.30
2023-02-22T16:19:29.679Z,1.25
2023-02-22T16:22:03.791Z,1.30
2023-02-22T16:24:35.016Z,1.52
2023-02-22T16:27:08.310Z,1.02
2023-02-22T16:29:36.640Z,1.20
2023-02-22T16:32:08.453Z,1.40
2023-02-22T16:34:36.884Z,0.80
2023-02-22T16:37:05.242Z,1.00
2023-02-22T16:39:36.883Z,1.17
2023-02-22T16:42:10.829Z,1.02
2023-02-22T16:44:39.167Z,1.38
2023-02-22T16:47:07.590Z,1.20
2023-02-22T16:49:35.892Z,1.50
2023-02-22T16:52:08.517Z,0.98
2023-02-22T16:54:42.457Z,1.42
2023-02-22T16:57:21.847Z,1.15
2023-02-22T16:59:53.528Z,1.10
2023-02-22T17:02:22.641Z,0.95
2023-02-22T17:04:51.175Z,1.00
2023-02-22T17:07:31.710Z,1.20
2023-02-22T17:10:00.268Z,1.10
2023-02-22T17:12:33.003Z,1.00
2023-02-22T17:15:01.405Z,1.42
2023-02-22T17:17:31.775Z,0.90
2023-02-22T17:20:02.589Z,0.82
2023-02-22T17:22:30.946Z,1.15
2023-02-22T17:24:59.190Z,1.00
2023-02-22T17:27:27.514Z,0.80
2023-02-22T17:29:55.830Z,1.10
2023-02-22T17:32:24.111Z,0.98
2023-02-22T17:34:53.011Z,1.30
2023-02-22T17:37:21.339Z,1.10
2023-02-22T17:39:49.585Z,0.82
2023-02-22T17:42:17.960Z,1.30
2023-02-22T17:44:46.235Z,1.25
2023-02-22T17:47:14.496Z,1.05
2023-02-22T17:49:42.835Z,1.63
2023-02-22T17:52:16.449Z,1.33
2023-02-22T17:54:44.774Z,1.30
2023-02-22T17:57:13.133Z,1.10
2023-02-22T17:59:41.480Z,1.50
2023-02-22T18:02:11.692Z,1.00
2023-02-22T18:04:41.435Z,1.48
2023-02-22T18:07:10.735Z,1.25
2023-02-22T18:09:39.014Z,1.00
2023-02-22T18:12:07.367Z,1.02
2023-02-22T18:14:35.677Z,1.20
2023-02-22T18:17:03.925Z,1.13
2023-02-22T18:19:32.256Z,1.08
2023-02-22T18:22:01.146Z,0.75
2023-02-22T18:24:31.986Z,1.58
2023-02-22T18:27:00.650Z,1.05
2023-02-22T18:29:29.804Z,1.08
2023-02-22T18:31:58.288Z,1.05
2023-02-22T18:34:26.705Z,0.90
2023-02-22T18:36:56.166Z,0.82
2023-02-22T18:39:24.434Z,1.15
2023-02-22T18:41:52.791Z,1.25
2023-02-22T18:44:21.556Z,0.88
2023-02-22T18:46:49.889Z,1.17
2023-02-22T18:49:18.333Z,1.08
2023-02-22T18:51:47.233Z,0.80
2023-02-22T18:54:15.612Z,0.77
2023-02-22T18:56:43.911Z,1.10
2023-02-22T18:59:16.549Z,0.80
2023-02-22T19:01:49.669Z,0.90
2023-02-22T19:04:19.086Z,0.73
2023-02-22T19:06:49.815Z,0.82
2023-02-22T19:09:18.795Z,0.90
2023-02-22T19:11:49.134Z,0.80
2023-02-22T19:14:18.336Z,1.13
2023-02-22T19:16:49.414Z,0.85
2023-02-22T19:19:23.199Z,1.00
2023-02-22T19:21:53.079Z,1.00
2023-02-22T19:24:21.580Z,0.95
2023-02-22T19:26:54.574Z,1.00
2023-02-22T19:29:25.962Z,1.20
2023-02-22T19:31:54.608Z,0.80
2023-02-22T19:34:25.292Z,0.63
2023-02-22T19:36:53.699Z,0.80
2023-02-22T19:41:52.017Z,0.75
2023-02-22T19:44:20.352Z,0.70
2023-02-22T19:46:52.790Z,0.80
2023-02-22T19:49:21.191Z,0.85
2023-02-22T19:51:49.548Z,0.70
2023-02-22T19:54:22.198Z,0.70
2023-02-22T19:56:52.084Z,0.90
2023-02-22T19:59:24.457Z,0.63
2023-02-22T20:01:56.357Z,1.45
2023-02-22T20:04:25.627Z,1.00
2023-02-22T20:06:55.612Z,0.85
2023-02-22T20:09:41.181Z,1.00
2023-02-22T20:12:09.726Z,0.88
2023-02-22T20:14:38.172Z,0.93
2023-02-22T20:17:07.884Z,1.40
2023-02-22T20:19:38.133Z,0.60
2023-02-22T20:22:06.393Z,0.50
2023-02-22T20:24:34.663Z,0.68
2023-02-22T20:27:02.910Z,1.20
2023-02-22T20:29:31.373Z,0.80
2023-02-22T20:32:01.674Z,1.38
2023-02-22T20:34:34.441Z,0.77
2023-02-22T20:37:03.588Z,1.20
2023-02-22T20:39:32.498Z,1.35
2023-02-22T20:45:16.015Z,1.52
2023-02-22T20:47:45.195Z,1.13
2023-02-22T20:52:49.474Z,1.10
2023-02-22T20:58:28.000Z,1.73
